createdAt,value
2018-12-01T00:01:13.951Z,99573.00
2018-12-01T00:03:42.998Z,99566.00
2018-12-01T00:06:12.134Z,99565.00
2018-12-01T00:08:41.190Z,99573.00
2018-12-01T00:11:10.256Z,99570.00
2018-12-01T00:13:39.278Z,99577.00
2018-12-01T00:16:08.431Z,99579.00
2018-12-01T00:18:37.486Z,99583.00
2018-12-01T00:21:06.602Z,99581.00
2018-12-01T00:23:35.630Z,99575.00
2018-12-01T00:26:04.741Z,99579.00
2018-12-01T00:28:33.735Z,99578.00
2018-12-01T00:31:02.773Z,99580.00
2018-12-01T00:33:31.803Z,99573.00
2018-12-01T00:36:00.864Z,99573.00
2018-12-01T00:38:29.855Z,99572.00
2018-12-01T00:40:59.023Z,99573.00
2018-12-01T00:43:28.036Z,99568.00
2018-12-01T00:45:57.049Z,99566.00
2018-12-01T00:48:26.136Z,99561.00
2018-12-01T00:50:55.167Z,99562.00
2018-12-01T00:53:25.354Z,99566.00
2018-12-01T00:55:54.427Z,99569.00
2018-12-01T00:58:23.433Z,99567.00
2018-12-01T01:00:52.495Z,99562.00
2018-12-01T01:03:22.444Z,99558.00
2018-12-01T01:05:51.470Z,99562.00
2018-12-01T01:08:20.468Z,99561.00
2018-12-01T01:10:49.582Z,99559.00
2018-12-01T01:13:18.623Z,99563.00
2018-12-01T01:15:47.642Z,99563.00
2018-12-01T01:18:16.643Z,99566.00
2018-12-01T01:20:45.799Z,99567.00
2018-12-01T01:23:14.790Z,99570.00
2018-12-01T01:25:43.858Z,99569.00
2018-12-01T01:28:12.878Z,99569.00
2018-12-01T01:30:41.926Z,99573.00
2018-12-01T01:33:24.619Z,99582.00
2018-12-01T01:35:53.641Z,99585.00
2018-12-01T01:38:22.677Z,99584.00
2018-12-01T01:40:57.003Z,99590.00
2018-12-01T01:43:26.081Z,99591.00
2018-12-01T01:45:55.858Z,99573.00
2018-12-01T01:48:24.998Z,99590.00
2018-12-01T01:50:54.012Z,99586.00
2018-12-01T01:53:23.053Z,99592.00
2018-12-01T01:55:52.901Z,99587.00
2018-12-01T01:58:21.907Z,99589.00
2018-12-01T02:00:50.902Z,99591.00
2018-12-01T02:03:19.907Z,99590.00
2018-12-01T02:05:48.963Z,99589.00
2018-12-01T02:08:18.082Z,99584.00
2018-12-01T02:10:47.071Z,99589.00
2018-12-01T02:13:16.135Z,99585.00
2018-12-01T02:15:45.164Z,99588.00
2018-12-01T02:18:14.179Z,99586.00
2018-12-01T02:20:43.252Z,99584.00
2018-12-01T02:23:12.232Z,99583.00
2018-12-01T02:25:41.268Z,99575.00
2018-12-01T02:28:10.290Z,99572.00
2018-12-01T02:30:39.276Z,99576.00
2018-12-01T02:33:08.330Z,99580.00
2018-12-01T02:35:37.324Z,99573.00
2018-12-01T02:38:06.432Z,99574.00
2018-12-01T02:40:35.471Z,99573.00
2018-12-01T02:43:04.501Z,99571.00
2018-12-01T02:45:50.662Z,99573.00
2018-12-01T02:48:19.715Z,99568.00
2018-12-01T02:50:48.758Z,99574.00
2018-12-01T02:53:17.838Z,99570.00
2018-12-01T02:55:46.923Z,99567.00
2018-12-01T02:58:15.992Z,99569.00
2018-12-01T03:00:45.001Z,99568.00
2018-12-01T03:03:14.031Z,99565.00
2018-12-01T03:05:43.039Z,99567.00
2018-12-01T03:08:12.043Z,99563.00
2018-12-01T03:10:41.055Z,99561.00
2018-12-01T03:13:10.055Z,99558.00
2018-12-01T03:15:39.034Z,99557.00
2018-12-01T03:18:08.030Z,99550.00
2018-12-01T03:20:37.088Z,99550.00
2018-12-01T03:23:06.165Z,99552.00
2018-12-01T03:25:35.285Z,99551.00
2018-12-01T03:28:04.303Z,99555.00
2018-12-01T03:30:33.322Z,99548.00
2018-12-01T03:33:02.754Z,99543.00
2018-12-01T03:35:32.334Z,99557.00
2018-12-01T03:38:01.387Z,99560.00
2018-12-01T03:40:34.530Z,99561.00
2018-12-01T03:43:03.570Z,99561.00
2018-12-01T03:45:32.579Z,99561.00
2018-12-01T03:48:01.595Z,99566.00
2018-12-01T03:50:30.815Z,99562.00
2018-12-01T03:52:59.922Z,99566.00
2018-12-01T03:55:31.338Z,99571.00
2018-12-01T03:58:00.744Z,99569.00
2018-12-01T04:00:31.698Z,99575.00
2018-12-01T04:03:01.881Z,99572.00
2018-12-01T04:05:31.258Z,99570.00
2018-12-01T04:08:00.266Z,99576.00
2018-12-01T04:10:29.322Z,99578.00
2018-12-01T04:12:58.377Z,99575.00
2018-12-01T04:15:27.490Z,99574.00
2018-12-01T04:17:56.540Z,99579.00
2018-12-01T04:20:25.619Z,99578.00
2018-12-01T04:22:54.667Z,99571.00
2018-12-01T04:25:23.782Z,99571.00
2018-12-01T04:27:52.877Z,99568.00
2018-12-01T04:30:23.562Z,99573.00
2018-12-01T04:32:52.625Z,99571.00
2018-12-01T04:35:22.507Z,99570.00
2018-12-01T04:37:54.086Z,99564.00
2018-12-01T04:40:23.265Z,99577.00
2018-12-01T04:42:52.561Z,99579.00
2018-12-01T04:45:21.593Z,99581.00
2018-12-01T04:47:50.658Z,99581.00
2018-12-01T04:50:19.791Z,99584.00
2018-12-01T04:52:49.643Z,99587.00
2018-12-01T04:55:20.814Z,99597.00
2018-12-01T04:57:49.905Z,99599.00
2018-12-01T05:00:20.107Z,99602.00
2018-12-01T05:02:49.202Z,99601.00
2018-12-01T05:05:21.388Z,99608.00
2018-12-01T05:07:50.824Z,99598.00
2018-12-01T05:10:21.580Z,99599.00
2018-12-01T05:12:50.769Z,99595.00
2018-12-01T05:15:20.283Z,99589.00
2018-12-01T05:17:49.338Z,99585.00
2018-12-01T05:20:24.360Z,99591.00
2018-12-01T05:22:54.039Z,99591.00
2018-12-01T05:25:23.322Z,99592.00
2018-12-01T05:27:52.397Z,99601.00
2018-12-01T05:30:21.431Z,99598.00
2018-12-01T05:32:50.479Z,99602.00
2018-12-01T05:35:21.264Z,99607.00
2018-12-01T05:37:50.410Z,99607.00
2018-12-01T05:40:19.511Z,99605.00
2018-12-01T05:42:48.521Z,99605.00
2018-12-01T05:45:19.806Z,99599.00
2018-12-01T05:47:49.031Z,99602.00
2018-12-01T05:50:23.206Z,99599.00
2018-12-01T05:52:53.543Z,99597.00
2018-12-01T05:55:22.701Z,99607.00
2018-12-01T05:57:51.823Z,99606.00
2018-12-01T06:00:21.103Z,99603.00
2018-12-01T06:02:50.173Z,99588.00
2018-12-01T06:05:19.226Z,99589.00
2018-12-01T06:07:48.247Z,99585.00
2018-12-01T06:10:19.001Z,99586.00
2018-12-01T06:12:48.930Z,99587.00
2018-12-01T06:15:18.647Z,99586.00
2018-12-01T06:17:47.683Z,99583.00
2018-12-01T06:20:21.618Z,99581.00
2018-12-01T06:22:50.681Z,99585.00
2018-12-01T06:25:21.620Z,99586.00
2018-12-01T06:27:50.746Z,99589.00
2018-12-01T06:30:20.682Z,99585.00
2018-12-01T06:32:51.199Z,99584.00
2018-12-01T06:35:20.290Z,99580.00
2018-12-01T06:37:49.364Z,99578.00
2018-12-01T06:40:19.804Z,99577.00
2018-12-01T06:42:48.970Z,99574.00
2018-12-01T06:45:18.454Z,99579.00
2018-12-01T06:47:47.520Z,99575.00
2018-12-01T06:50:20.534Z,99576.00
2018-12-01T06:52:50.046Z,99578.00
2018-12-01T06:55:19.081Z,99581.00
2018-12-01T06:57:48.460Z,99570.00
2018-12-01T07:00:20.032Z,99560.00
2018-12-01T07:02:49.582Z,99554.00
2018-12-01T07:05:19.074Z,99555.00
2018-12-01T07:07:48.115Z,99557.00
2018-12-01T07:10:18.734Z,99557.00
2018-12-01T07:12:59.870Z,99543.00
2018-12-01T07:15:32.464Z,99541.00
2018-12-01T07:18:01.516Z,99533.00
2018-12-01T07:20:30.581Z,99548.00
2018-12-01T07:22:59.618Z,99549.00
2018-12-01T07:25:28.648Z,99553.00
2018-12-01T07:27:57.675Z,99555.00
2018-12-01T07:30:26.690Z,99559.00
2018-12-01T07:32:55.739Z,99565.00
2018-12-01T07:35:24.742Z,99559.00
2018-12-01T07:37:53.866Z,99562.00
2018-12-01T07:40:22.927Z,99558.00
2018-12-01T07:42:51.974Z,99561.00
2018-12-01T07:45:21.008Z,99558.00
2018-12-01T07:47:50.077Z,99556.00
2018-12-01T07:50:20.091Z,99555.00
2018-12-01T07:52:53.375Z,99562.00
2018-12-01T07:55:22.477Z,99558.00
2018-12-01T07:57:51.531Z,99561.00
2018-12-01T08:00:20.632Z,99568.00
2018-12-01T08:02:50.982Z,99564.00
2018-12-01T08:05:20.011Z,99570.00
2018-12-01T08:07:49.218Z,99574.00
2018-12-01T08:10:18.318Z,99585.00
2018-12-01T08:12:47.373Z,99587.00
2018-12-01T08:15:17.632Z,99589.00
2018-12-01T08:17:47.203Z,99591.00
2018-12-01T08:20:17.310Z,99588.00
2018-12-01T08:22:46.339Z,99592.00
2018-12-01T08:25:19.582Z,99589.00
2018-12-01T08:27:51.743Z,99589.00
2018-12-01T08:30:23.699Z,99587.00
2018-12-01T08:32:52.766Z,99588.00
2018-12-01T08:35:22.092Z,99583.00
2018-12-01T08:37:51.352Z,99589.00
2018-12-01T08:40:22.564Z,99588.00
2018-12-01T08:42:51.584Z,99590.00
2018-12-01T08:45:20.662Z,99586.00
2018-12-01T08:47:49.683Z,99593.00
2018-12-01T08:50:20.556Z,99587.00
2018-12-01T08:52:49.665Z,99592.00
2018-12-01T08:55:21.042Z,99593.00
2018-12-01T08:57:50.750Z,99599.00
2018-12-01T09:00:24.594Z,99598.00
2018-12-01T09:03:00.679Z,99601.00
2018-12-01T09:05:29.687Z,99600.00
2018-12-01T09:07:58.655Z,99607.00
2018-12-01T09:10:27.657Z,99607.00
2018-12-01T09:13:01.398Z,99595.00
2018-12-01T09:15:25.673Z,99599.00
2018-12-01T09:17:54.736Z,99592.00
2018-12-01T09:20:23.761Z,99589.00
2018-12-01T09:22:52.795Z,99577.00
2018-12-01T09:25:21.981Z,99576.00
2018-12-01T09:27:51.107Z,99587.00
2018-12-01T09:30:26.954Z,99581.00
2018-12-01T09:32:55.986Z,99573.00
2018-12-01T09:35:25.027Z,99576.00
2018-12-01T09:37:54.068Z,99571.00
2018-12-01T09:40:24.150Z,99559.00
2018-12-01T09:42:53.363Z,99555.00
2018-12-01T09:45:25.463Z,99552.00
2018-12-01T09:47:55.816Z,99551.00
2018-12-01T09:50:24.896Z,99562.00
2018-12-01T09:52:55.791Z,99561.00
2018-12-01T09:55:28.614Z,99549.00
2018-12-01T09:57:58.467Z,99540.00
2018-12-01T10:00:31.083Z,99541.00
2018-12-01T10:03:01.676Z,99555.00
2018-12-01T10:05:31.300Z,99551.00
2018-12-01T10:08:00.439Z,99545.00
2018-12-01T10:10:30.271Z,99537.00
2018-12-01T10:12:59.604Z,99544.00
2018-12-01T10:15:30.734Z,99539.00
2018-12-01T10:17:59.805Z,99541.00
2018-12-01T10:20:33.824Z,99541.00
2018-12-01T10:23:09.334Z,99548.00
2018-12-01T10:25:38.343Z,99537.00
2018-12-01T10:28:09.142Z,99531.00
2018-12-01T10:30:38.255Z,99522.00
2018-12-01T10:33:07.634Z,99516.00
2018-12-01T10:35:37.457Z,99510.00
2018-12-01T10:38:11.543Z,99512.00
2018-12-01T10:40:40.602Z,99508.00
2018-12-01T10:43:09.667Z,99508.00
2018-12-01T10:45:39.054Z,99501.00
2018-12-01T10:48:09.491Z,99492.00
2018-12-01T10:50:39.026Z,99488.00
2018-12-01T10:53:08.439Z,99482.00
2018-12-01T10:55:37.509Z,99488.00
2018-12-01T10:58:19.219Z,99490.00
2018-12-01T11:00:56.076Z,99483.00
2018-12-01T11:03:32.926Z,99483.00
2018-12-01T11:06:05.718Z,99476.00
2018-12-01T11:08:34.715Z,99478.00
2018-12-01T11:11:03.758Z,99469.00
2018-12-01T11:13:32.779Z,99474.00
2018-12-01T11:16:01.799Z,99465.00
2018-12-01T11:18:30.818Z,99460.00
2018-12-01T11:20:59.855Z,99452.00
2018-12-01T11:23:28.945Z,99451.00
2018-12-01T11:25:57.983Z,99437.00
2018-12-01T11:28:27.372Z,99435.00
2018-12-01T11:30:56.410Z,99423.00
2018-12-01T11:33:25.467Z,99424.00
2018-12-01T11:35:54.573Z,99431.00
2018-12-01T11:38:23.628Z,99407.00
2018-12-01T11:40:52.643Z,99413.00
2018-12-01T11:43:21.711Z,99421.00
2018-12-01T11:45:50.810Z,99407.00
2018-12-01T11:48:19.922Z,99416.00
2018-12-01T11:50:49.100Z,99411.00
2018-12-01T11:53:18.133Z,99417.00
2018-12-01T11:55:47.123Z,99389.00
2018-12-01T11:58:16.150Z,99406.00
2018-12-01T12:00:46.007Z,99403.00
2018-12-01T12:03:15.038Z,99384.00
2018-12-01T12:05:44.065Z,99398.00
2018-12-01T12:08:27.963Z,99392.00
2018-12-01T12:10:57.047Z,99387.00
2018-12-01T12:13:27.315Z,99391.00
2018-12-01T12:15:56.734Z,99388.00
2018-12-01T12:18:25.736Z,99385.00
2018-12-01T12:20:54.714Z,99383.00
2018-12-01T12:23:23.693Z,99392.00
2018-12-01T12:25:52.686Z,99383.00
2018-12-01T12:28:21.752Z,99395.00
2018-12-01T12:30:50.801Z,99382.00
2018-12-01T12:33:19.837Z,99370.00
2018-12-01T12:35:48.842Z,99372.00
2018-12-01T12:38:17.922Z,99374.00
2018-12-01T12:40:46.938Z,99371.00
2018-12-01T12:43:15.997Z,99373.00
2018-12-01T12:45:45.022Z,99361.00
2018-12-01T12:48:14.058Z,99355.00
2018-12-01T12:50:43.082Z,99357.00
2018-12-01T12:53:12.104Z,99355.00
2018-12-01T12:55:41.182Z,99349.00
2018-12-01T12:58:11.198Z,99349.00
2018-12-01T13:00:40.401Z,99335.00
2018-12-01T13:03:11.279Z,99346.00
2018-12-01T13:05:45.775Z,99340.00
2018-12-01T13:08:17.891Z,99337.00
2018-12-01T13:10:47.096Z,99333.00
2018-12-01T13:13:16.109Z,99331.00
2018-12-01T13:15:45.232Z,99333.00
2018-12-01T13:18:15.064Z,99325.00
2018-12-01T13:20:46.755Z,99323.00
2018-12-01T13:23:15.867Z,99311.00
2018-12-01T13:25:44.995Z,99317.00
2018-12-01T13:28:23.858Z,99313.00
2018-12-01T13:30:55.379Z,99322.00
2018-12-01T13:33:25.169Z,99308.00
2018-12-01T13:35:54.514Z,99304.00
2018-12-01T13:38:23.823Z,99305.00
2018-12-01T13:40:52.952Z,99290.00
2018-12-01T13:43:21.982Z,99295.00
2018-12-01T13:45:51.050Z,99291.00
2018-12-01T13:48:20.159Z,99256.00
2018-12-01T13:50:49.257Z,99286.00
2018-12-01T13:53:18.819Z,99281.00
2018-12-01T13:55:47.947Z,99274.00
2018-12-01T13:58:17.003Z,99286.00
2018-12-01T14:00:46.080Z,99278.00
2018-12-01T14:03:15.102Z,99277.00
2018-12-01T14:05:44.164Z,99275.00
2018-12-01T14:08:13.206Z,99282.00
2018-12-01T14:10:45.019Z,99286.00
2018-12-01T14:13:14.859Z,99284.00
2018-12-01T14:15:44.278Z,99272.00
2018-12-01T14:18:13.991Z,99283.00
2018-12-01T14:20:43.031Z,99279.00
2018-12-01T14:23:13.184Z,99264.00
2018-12-01T14:25:42.240Z,99285.00
2018-12-01T14:28:12.619Z,99286.00
2018-12-01T14:30:41.806Z,99285.00
2018-12-01T14:33:12.380Z,99275.00
2018-12-01T14:35:41.528Z,99280.00
2018-12-01T14:38:16.383Z,99283.00
2018-12-01T14:40:47.035Z,99283.00
2018-12-01T14:43:16.161Z,99275.00
2018-12-01T14:45:46.984Z,99278.00
2018-12-01T14:48:16.098Z,99282.00
2018-12-01T14:50:48.572Z,99280.00
2018-12-01T14:53:16.083Z,99274.00
2018-12-01T14:55:45.108Z,99265.00
2018-12-01T14:58:14.814Z,99275.00
2018-12-01T15:00:44.103Z,99272.00
2018-12-01T15:03:13.127Z,99263.00
2018-12-01T15:05:42.655Z,99265.00
2018-12-01T15:08:12.393Z,99253.00
2018-12-01T15:10:41.450Z,99252.00
2018-12-01T15:13:10.522Z,99250.00
2018-12-01T15:15:39.553Z,99240.00
2018-12-01T15:18:08.632Z,99237.00
2018-12-01T15:20:37.630Z,99232.00
2018-12-01T15:23:07.714Z,99224.00
2018-12-01T15:25:36.726Z,99212.00
2018-12-01T15:28:06.450Z,99213.00
2018-12-01T15:30:35.499Z,99209.00
2018-12-01T15:33:13.070Z,99209.00
2018-12-01T15:35:44.137Z,99202.00
2018-12-01T15:38:14.288Z,99204.00
2018-12-01T15:40:47.212Z,99195.00
2018-12-01T15:43:17.039Z,99193.00
2018-12-01T15:45:45.291Z,99189.00
2018-12-01T15:48:14.410Z,99182.00
2018-12-01T15:50:43.482Z,99178.00
2018-12-01T15:53:15.135Z,99169.00
2018-12-01T15:55:44.398Z,99167.00
2018-12-01T15:58:13.940Z,99159.00
2018-12-01T16:00:46.262Z,99156.00
2018-12-01T16:03:23.012Z,99154.00
2018-12-01T16:05:57.599Z,99162.00
2018-12-01T16:08:28.447Z,99162.00
2018-12-01T16:11:03.019Z,99157.00
2018-12-01T16:13:34.821Z,99156.00
2018-12-01T16:16:10.699Z,99154.00
2018-12-01T16:18:46.843Z,99142.00
2018-12-01T16:21:23.859Z,99139.00
2018-12-01T16:26:47.108Z,99119.00
2018-12-01T16:29:23.775Z,99121.00
2018-12-01T16:31:53.640Z,99121.00
2018-12-01T16:34:23.648Z,99117.00
2018-12-01T16:36:55.635Z,99117.00
2018-12-01T16:39:25.835Z,99110.00
2018-12-01T16:42:00.114Z,99111.00
2018-12-01T16:44:38.451Z,99103.00
2018-12-01T16:47:22.026Z,99099.00
2018-12-01T16:49:58.378Z,99088.00
2018-12-01T16:52:30.200Z,99069.00
2018-12-01T16:55:05.629Z,99060.00
2018-12-01T17:00:22.752Z,99052.00
2018-12-01T17:03:01.883Z,99028.00
2018-12-01T17:05:40.263Z,99027.00
2018-12-01T17:10:50.818Z,99015.00
2018-12-01T17:13:28.946Z,99006.00
2018-12-01T17:16:03.564Z,99005.00
2018-12-01T17:18:32.865Z,98981.00
2018-12-01T17:21:04.403Z,98999.00
2018-12-01T17:23:42.617Z,98984.00
2018-12-01T17:26:12.567Z,98982.00
2018-12-01T17:28:44.751Z,98974.00
2018-12-01T17:31:19.155Z,98969.00
2018-12-01T17:33:50.849Z,98956.00
2018-12-01T17:36:24.573Z,98957.00
2018-12-01T17:38:53.982Z,98957.00
2018-12-01T17:41:30.658Z,98943.00
2018-12-01T17:44:07.909Z,98936.00
2018-12-01T17:46:41.285Z,98932.00
2018-12-01T17:49:11.308Z,98917.00
2018-12-01T17:51:43.288Z,98898.00
2018-12-01T17:54:17.115Z,98911.00
2018-12-01T17:56:52.787Z,98911.00
2018-12-01T17:59:27.686Z,98898.00
2018-12-01T18:02:03.396Z,98896.00
2018-12-01T18:04:39.601Z,98898.00
2018-12-01T18:07:10.487Z,98887.00
2018-12-01T18:09:43.637Z,98895.00
2018-12-01T18:12:13.128Z,98890.00
2018-12-01T18:14:43.897Z,98847.00
2018-12-01T18:17:13.201Z,98870.00
2018-12-01T18:19:48.135Z,98860.00
2018-12-01T18:22:19.637Z,98872.00
2018-12-01T18:24:49.536Z,98868.00
2018-12-01T18:27:23.086Z,98859.00
2018-12-01T18:29:55.240Z,98846.00
2018-12-01T18:32:23.874Z,98848.00
2018-12-01T18:34:53.207Z,98859.00
2018-12-01T18:37:22.526Z,98851.00
2018-12-01T18:39:54.082Z,98849.00
2018-12-01T18:42:23.295Z,98839.00
2018-12-01T18:44:52.510Z,98832.00
2018-12-01T18:47:25.155Z,98822.00
2018-12-01T18:49:57.447Z,98829.00
2018-12-01T18:52:27.498Z,98835.00
2018-12-01T18:54:56.689Z,98828.00
2018-12-01T18:57:25.894Z,98818.00
2018-12-01T18:59:55.241Z,98819.00
2018-12-01T19:02:24.474Z,98805.00
2018-12-01T19:04:53.697Z,98809.00
2018-12-01T19:07:22.981Z,98821.00
2018-12-01T19:09:52.902Z,98816.00
2018-12-01T19:12:22.106Z,98816.00
2018-12-01T19:14:53.670Z,98805.00
2018-12-01T19:17:23.227Z,98783.00
2018-12-01T19:19:52.615Z,98808.00
2018-12-01T19:22:24.796Z,98805.00
2018-12-01T19:24:54.047Z,98779.00
2018-12-01T19:27:23.806Z,98800.00
2018-12-01T19:29:53.300Z,98805.00
2018-12-01T19:32:24.226Z,98808.00
2018-12-01T19:34:55.777Z,98810.00
2018-12-01T19:37:25.361Z,98799.00
2018-12-01T19:39:55.965Z,98790.00
2018-12-01T19:42:26.280Z,98787.00
2018-12-01T19:45:09.056Z,98779.00
2018-12-01T19:50:54.373Z,98781.00
2018-12-01T19:53:32.898Z,98770.00
2018-12-01T19:56:39.241Z,98773.00
2018-12-01T19:59:10.009Z,98771.00
2018-12-01T20:01:41.239Z,98776.00
2018-12-01T20:04:10.824Z,98777.00
2018-12-01T20:06:40.454Z,98778.00
2018-12-01T20:09:10.626Z,98786.00
2018-12-01T20:11:40.304Z,98779.00
2018-12-01T20:14:15.934Z,98773.00
2018-12-01T20:16:51.485Z,98786.00
2018-12-01T20:19:21.564Z,98776.00
2018-12-01T20:21:51.206Z,98784.00
2018-12-01T20:24:20.464Z,98782.00
2018-12-01T20:26:49.825Z,98770.00
2018-12-01T20:29:19.262Z,98749.00
2018-12-01T20:31:48.517Z,98775.00
2018-12-01T20:34:18.171Z,98759.00
2018-12-01T20:36:53.486Z,98742.00
2018-12-01T20:39:30.237Z,98752.00
2018-12-01T20:41:59.740Z,98758.00
2018-12-01T20:44:31.681Z,98756.00
2018-12-01T20:47:02.080Z,98744.00
2018-12-01T20:49:31.416Z,98735.00
2018-12-01T20:52:01.140Z,98756.00
2018-12-01T20:54:38.879Z,98744.00
2018-12-01T20:57:17.153Z,98747.00
2018-12-01T20:59:46.445Z,98743.00
2018-12-01T21:02:16.519Z,98733.00
2018-12-01T21:04:45.663Z,98744.00
2018-12-01T21:07:15.020Z,98742.00
2018-12-01T21:09:44.165Z,98737.00
2018-12-01T21:12:19.341Z,98725.00
2018-12-01T21:14:48.853Z,98711.00
2018-12-01T21:17:19.649Z,98723.00
2018-12-01T21:19:53.315Z,98723.00
2018-12-01T21:22:22.662Z,98713.00
2018-12-01T21:24:51.962Z,98705.00
2018-12-01T21:27:22.191Z,98697.00
2018-12-01T21:29:52.496Z,98693.00
2018-12-01T21:32:24.675Z,98693.00
2018-12-01T21:34:53.938Z,98681.00
2018-12-01T21:37:24.449Z,98677.00
2018-12-01T21:39:54.274Z,98676.00
2018-12-01T21:42:23.899Z,98683.00
2018-12-01T21:44:53.347Z,98666.00
2018-12-01T21:47:29.282Z,98674.00
2018-12-01T21:49:58.534Z,98667.00
2018-12-01T21:52:30.686Z,98666.00
2018-12-01T21:55:00.166Z,98665.00
2018-12-01T21:57:29.666Z,98667.00
2018-12-01T21:59:59.264Z,98667.00
2018-12-01T22:02:28.574Z,98664.00
2018-12-01T22:04:58.863Z,98666.00
2018-12-01T22:07:29.319Z,98652.00
2018-12-01T22:10:00.071Z,98648.00
2018-12-01T22:12:29.545Z,98673.00
2018-12-01T22:14:59.602Z,98657.00
2018-12-01T22:17:28.910Z,98666.00
2018-12-01T22:19:58.085Z,98663.00
2018-12-01T22:22:28.166Z,98654.00
2018-12-01T22:24:57.522Z,98657.00
2018-12-01T22:27:29.040Z,98653.00
2018-12-01T22:29:58.420Z,98649.00
2018-12-01T22:32:29.026Z,98621.00
2018-12-01T22:34:58.989Z,98639.00
2018-12-01T22:37:29.159Z,98638.00
2018-12-01T22:39:58.841Z,98650.00
2018-12-01T22:42:29.435Z,98639.00
2018-12-01T22:44:58.775Z,98649.00
2018-12-01T22:47:28.531Z,98647.00
2018-12-01T22:49:58.419Z,98641.00
2018-12-01T22:52:29.723Z,98643.00
2018-12-01T22:55:00.634Z,98639.00
2018-12-01T22:57:30.168Z,98635.00
2018-12-01T22:59:59.548Z,98637.00
2018-12-01T23:02:28.963Z,98626.00
2018-12-01T23:07:55.301Z,98605.00
2018-12-01T23:10:37.261Z,98619.00
2018-12-01T23:13:10.514Z,98599.00
2018-12-01T23:15:56.504Z,98619.00
2018-12-01T23:18:52.327Z,98616.00
2018-12-01T23:21:45.344Z,98607.00
2018-12-01T23:25:34.492Z,98601.00
2018-12-01T23:28:15.133Z,98592.00
2018-12-01T23:31:01.323Z,98613.00
2018-12-01T23:36:46.881Z,98602.00
2018-12-01T23:39:16.054Z,98596.00
2018-12-01T23:41:45.439Z,98603.00
2018-12-01T23:44:27.306Z,98596.00
2018-12-01T23:46:56.395Z,98593.00
2018-12-01T23:49:25.445Z,98591.00
2018-12-01T23:51:54.476Z,98590.00
2018-12-01T23:54:23.776Z,98591.00
2018-12-01T23:56:52.831Z,98564.00
2018-12-01T23:59:21.956Z,98571.00
